Time;durP1;ratioP1;P1;durP2;ratioP2;P2;SDS_P1;SDS_P2;PMS_P1;PMS_P2;Temp;Humidity;BMP_temperature;BMP_pressure;BME280_temperature;BME280_humidity;BME280_pressure;Samples;Min_cycle;Max_cycle;Signal;HPM_P1;HPM_P2
2022/01/02 00:01:59;;;;;;;10.82;8.57;;;;;;;;;;5090184;28;20032;-35
2022/01/02 00:04:28;;;;;;;8.65;7.22;;;;;;;;;;5088773;28;20186;-36
2022/01/02 00:06:55;;;;;;;10.35;8.00;;;;;;;;;;5070379;28;20048;-36
2022/01/02 00:09:34;;;;;;;10.35;7.22;;;;;;;;;;5070000;28;20049;-37
2022/01/02 00:12:14;;;;;;;7.75;6.13;;;;;;;;;;5052273;28;20493;-32
2022/01/02 00:14:47;;;;;;;10.05;7.63;;;;;;;;;;5088511;28;20089;-36
2022/01/02 00:17:17;;;;;;;11.55;8.32;;;;;;;;;;5089745;28;20042;-34
2022/01/02 00:19:51;;;;;;;9.80;8.15;;;;;;;;;;5088655;28;20044;-36
2022/01/02 00:22:19;;;;;;;11.50;7.53;;;;;;;;;;5069160;28;20062;-34
2022/01/02 00:24:45;;;;;;;10.35;8.18;;;;;;;;;;5070001;28;20119;-35
2022/01/02 00:27:14;;;;;;;9.48;7.78;;;;;;;;;;5087489;28;20118;-34
2022/01/02 00:29:41;;;;;;;14.70;7.32;;;;;;;;;;5069681;28;20040;-35
2022/01/02 00:32:08;;;;;;;9.40;7.22;;;;;;;;;;5071036;28;20589;-34
2022/01/02 00:34:35;;;;;;;11.35;6.90;;;;;;;;;;5083835;28;20044;-35
2022/01/02 00:37:01;;;;;;;12.15;8.32;;;;;;;;;;5087752;28;20577;-35
2022/01/02 00:39:27;;;;;;;14.30;8.10;;;;;;;;;;5090201;28;20075;-34
2022/01/02 00:41:55;;;;;;;10.80;6.95;;;;;;;;;;5087519;28;20036;-35
2022/01/02 00:44:33;;;;;;;13.10;7.45;;;;;;;;;;5090490;28;20039;-35
2022/01/02 00:47:07;;;;;;;11.02;7.70;;;;;;;;;;5085868;28;20129;-34
2022/01/02 00:49:34;;;;;;;10.60;7.63;;;;;;;;;;5075879;28;20045;-35
2022/01/02 00:52:04;;;;;;;10.80;6.95;;;;;;;;;;5070225;28;20208;-36
2022/01/02 00:54:33;;;;;;;10.85;7.07;;;;;;;;;;5069622;28;20084;-34
2022/01/02 00:57:03;;;;;;;10.50;6.88;;;;;;;;;;5082911;28;20043;-34
2022/01/02 00:59:30;;;;;;;13.30;7.15;;;;;;;;;;5079117;28;20055;-35
2022/01/02 01:02:02;;;;;;;10.32;7.32;;;;;;;;;;5087818;28;20048;-33
2022/01/02 01:04:29;;;;;;;11.98;7.40;;;;;;;;;;5090100;28;20115;-35
2022/01/02 01:06:57;;;;;;;13.07;7.68;;;;;;;;;;5078198;28;20095;-32
2022/01/02 01:09:23;;;;;;;11.40;8.00;;;;;;;;;;5073555;28;20445;-33
2022/01/02 01:11:49;;;;;;;14.10;7.28;;;;;;;;;;5084154;28;20044;-33
2022/01/02 01:14:15;;;;;;;8.60;6.93;;;;;;;;;;5090751;28;20067;-32
2022/01/02 01:16:42;;;;;;;11.63;7.20;;;;;;;;;;5074317;28;20066;-32
2022/01/02 01:19:08;;;;;;;12.25;6.88;;;;;;;;;;5076219;28;20043;-32
2022/01/02 01:21:34;;;;;;;11.77;7.93;;;;;;;;;;5087046;28;20037;-33
2022/01/02 01:24:00;;;;;;;14.25;8.07;;;;;;;;;;5097333;28;20071;-32
2022/01/02 01:26:26;;;;;;;15.00;7.43;;;;;;;;;;5100073;28;20400;-32
2022/01/02 01:28:52;;;;;;;11.77;7.30;;;;;;;;;;5112891;28;20058;-32
2022/01/02 01:31:18;;;;;;;11.52;7.53;;;;;;;;;;5106034;28;20484;-33
2022/01/02 01:33:44;;;;;;;11.00;7.38;;;;;;;;;;5073934;28;20040;-33
2022/01/02 01:36:10;;;;;;;12.18;8.02;;;;;;;;;;5072936;28;20045;-33
2022/01/02 01:38:36;;;;;;;13.73;6.80;;;;;;;;;;5072900;28;20113;-31
2022/01/02 01:41:05;;;;;;;12.13;6.82;;;;;;;;;;5070487;28;20048;-32
2022/01/02 01:43:50;;;;;;;12.27;7.20;;;;;;;;;;5072878;28;20041;-32
2022/01/02 01:46:16;;;;;;;10.13;7.10;;;;;;;;;;5073145;28;20044;-34
2022/01/02 01:48:49;;;;;;;12.63;7.65;;;;;;;;;;5084168;28;20063;-32
2022/01/02 01:51:15;;;;;;;11.65;7.43;;;;;;;;;;5072096;28;20045;-30
2022/01/02 01:53:41;;;;;;;13.52;7.38;;;;;;;;;;5074156;28;20036;-32
2022/01/02 01:56:07;;;;;;;10.43;7.68;;;;;;;;;;5072920;28;20089;-32
2022/01/02 01:58:33;;;;;;;12.85;7.90;;;;;;;;;;5072941;28;20547;-31
2022/01/02 02:00:59;;;;;;;13.15;7.38;;;;;;;;;;5072558;28;20041;-30
2022/01/02 02:03:25;;;;;;;13.10;8.20;;;;;;;;;;5073382;28;20119;-34
2022/01/02 02:05:51;;;;;;;12.65;8.32;;;;;;;;;;5075062;28;20059;-35
2022/01/02 02:08:17;;;;;;;12.02;8.25;;;;;;;;;;5077942;28;20044;-33
2022/01/02 02:10:46;;;;;;;14.35;8.93;;;;;;;;;;5072646;28;20040;-31
2022/01/02 02:13:12;;;;;;;14.77;8.48;;;;;;;;;;5072912;28;20047;-31
2022/01/02 02:15:38;;;;;;;13.95;8.10;;;;;;;;;;5072712;28;20032;-32
2022/01/02 02:18:04;;;;;;;13.25;9.07;;;;;;;;;;5072379;28;20048;-33
2022/01/02 02:20:35;;;;;;;13.15;8.05;;;;;;;;;;5071966;28;20443;-31
2022/01/02 02:23:02;;;;;;;13.65;8.57;;;;;;;;;;5070838;28;20445;-31
2022/01/02 02:25:29;;;;;;;13.60;7.55;;;;;;;;;;5072150;28;20037;-32
2022/01/02 02:27:57;;;;;;;13.32;8.68;;;;;;;;;;5072553;28;20629;-32
2022/01/02 02:30:24;;;;;;;14.38;7.68;;;;;;;;;;5072292;28;20082;-32
2022/01/02 02:32:50;;;;;;;13.93;8.40;;;;;;;;;;5072300;28;20120;-31
2022/01/02 02:35:16;;;;;;;14.10;9.10;;;;;;;;;;5072536;28;20563;-33
2022/01/02 02:37:43;;;;;;;11.55;7.90;;;;;;;;;;5072561;28;20074;-32
2022/01/02 02:40:11;;;;;;;12.40;7.45;;;;;;;;;;5072088;28;20518;-33
2022/01/02 02:42:46;;;;;;;12.98;7.80;;;;;;;;;;5072003;28;20036;-34
2022/01/02 02:50:47;;;;;;;15.27;7.50;;;;;;;;;;5071453;28;20041;-32
2022/01/02 02:53:16;;;;;;;16.70;7.88;;;;;;;;;;5072140;28;20102;-32
2022/01/02 02:55:46;;;;;;;12.40;7.82;;;;;;;;;;5072001;28;20082;-33
2022/01/02 03:00:57;;;;;;;14.02;7.78;;;;;;;;;;5071850;28;20397;-33
2022/01/02 03:03:23;;;;;;;14.15;7.88;;;;;;;;;;5072567;28;20562;-32
2022/01/02 03:05:49;;;;;;;16.13;9.73;;;;;;;;;;5072313;28;20079;-32
2022/01/02 03:08:15;;;;;;;14.27;8.82;;;;;;;;;;5071842;28;20485;-31
2022/01/02 03:10:41;;;;;;;13.18;8.23;;;;;;;;;;5071684;28;20047;-32
2022/01/02 03:13:07;;;;;;;15.60;8.38;;;;;;;;;;5071864;28;20477;-32
2022/01/02 03:15:33;;;;;;;14.48;8.55;;;;;;;;;;5071595;28;20048;-32
2022/01/02 03:17:59;;;;;;;14.65;8.63;;;;;;;;;;5071057;28;20401;-32
2022/01/02 03:20:25;;;;;;;15.02;9.48;;;;;;;;;;5071708;28;20047;-31
2022/01/02 03:22:51;;;;;;;12.15;8.60;;;;;;;;;;5071292;28;20051;-32
2022/01/02 03:25:17;;;;;;;12.45;7.60;;;;;;;;;;5071175;28;20375;-32
2022/01/02 03:27:44;;;;;;;13.07;8.40;;;;;;;;;;5071639;28;20049;-34
2022/01/02 03:30:11;;;;;;;14.32;8.55;;;;;;;;;;5071344;28;20040;-34
2022/01/02 03:32:37;;;;;;;12.45;7.97;;;;;;;;;;5069605;28;20044;-31
2022/01/02 03:35:03;;;;;;;14.85;8.60;;;;;;;;;;5071461;28;20102;-32
2022/01/02 03:37:32;;;;;;;14.38;9.07;;;;;;;;;;5071427;28;20076;-32
2022/01/02 03:39:59;;;;;;;12.75;8.43;;;;;;;;;;5071234;28;20080;-32
2022/01/02 03:42:25;;;;;;;15.00;8.10;;;;;;;;;;5071169;28;20040;-33
2022/01/02 03:44:51;;;;;;;13.25;7.53;;;;;;;;;;5070934;28;20076;-32
2022/01/02 03:47:17;;;;;;;15.55;8.80;;;;;;;;;;5070911;28;20083;-33
2022/01/02 03:49:43;;;;;;;16.23;8.13;;;;;;;;;;5070727;28;20032;-32
2022/01/02 03:52:09;;;;;;;14.82;8.75;;;;;;;;;;5070569;28;20124;-34
2022/01/02 03:54:35;;;;;;;19.02;8.88;;;;;;;;;;5070754;28;20071;-33
2022/01/02 03:57:01;;;;;;;17.92;8.50;;;;;;;;;;5070452;28;20036;-33
2022/01/02 03:59:28;;;;;;;15.63;8.02;;;;;;;;;;5070731;28;20077;-32
2022/01/02 04:01:54;;;;;;;15.63;8.15;;;;;;;;;;5070813;28;20188;-31
2022/01/02 04:04:20;;;;;;;12.50;8.15;;;;;;;;;;5070975;28;20074;-32
2022/01/02 04:06:46;;;;;;;13.75;7.85;;;;;;;;;;5072175;28;20068;-32
2022/01/02 04:09:12;;;;;;;12.93;8.32;;;;;;;;;;5072503;28;20444;-33
2022/01/02 04:11:38;;;;;;;13.68;7.22;;;;;;;;;;5072287;28;20503;-31
2022/01/02 04:14:04;;;;;;;15.25;7.82;;;;;;;;;;5072113;28;20040;-31
2022/01/02 04:16:30;;;;;;;11.20;7.45;;;;;;;;;;5070984;28;20361;-31
2022/01/02 04:18:56;;;;;;;15.05;9.10;;;;;;;;;;5070539;28;20801;-32
2022/01/02 04:21:22;;;;;;;14.32;8.05;;;;;;;;;;5070277;28;20076;-32
2022/01/02 04:23:48;;;;;;;12.52;8.05;;;;;;;;;;5070161;28;20078;-32
2022/01/02 04:26:14;;;;;;;14.10;7.60;;;;;;;;;;5069813;28;20036;-32
2022/01/02 04:28:40;;;;;;;14.60;7.20;;;;;;;;;;5070340;28;20066;-32
2022/01/02 04:31:06;;;;;;;15.80;8.00;;;;;;;;;;5069984;28;20400;-31
2022/01/02 04:33:32;;;;;;;14.70;8.43;;;;;;;;;;5070157;28;20106;-32
2022/01/02 04:35:58;;;;;;;16.40;8.13;;;;;;;;;;5069902;28;20127;-33
2022/01/02 04:38:24;;;;;;;15.35;7.57;;;;;;;;;;5070065;28;20140;-32
2022/01/02 04:40:50;;;;;;;15.52;7.70;;;;;;;;;;5069895;28;20036;-32
2022/01/02 04:43:16;;;;;;;18.88;8.63;;;;;;;;;;5069875;28;20561;-32
2022/01/02 04:45:42;;;;;;;16.65;8.48;;;;;;;;;;5069836;28;20451;-31
2022/01/02 04:48:08;;;;;;;13.50;7.90;;;;;;;;;;5068796;28;20080;-31
2022/01/02 04:50:34;;;;;;;11.95;7.18;;;;;;;;;;5070050;28;20444;-32
2022/01/02 04:53:00;;;;;;;13.65;6.57;;;;;;;;;;5069815;28;20098;-32
2022/01/02 04:55:26;;;;;;;15.32;8.55;;;;;;;;;;5068477;28;20056;-33
2022/01/02 04:57:52;;;;;;;14.18;8.85;;;;;;;;;;5069607;28;20052;-31
2022/01/02 05:00:18;;;;;;;12.70;7.45;;;;;;;;;;5069629;28;20077;-32
2022/01/02 05:02:45;;;;;;;19.30;9.85;;;;;;;;;;5069840;28;20100;-31
2022/01/02 05:05:11;;;;;;;13.38;7.30;;;;;;;;;;5069618;28;20041;-31
2022/01/02 05:07:37;;;;;;;13.52;6.70;;;;;;;;;;5068677;28;20047;-34
2022/01/02 05:12:31;;;;;;;14.23;6.22;;;;;;;;;;5108048;28;20063;-28
2022/01/02 05:14:57;;;;;;;12.77;6.00;;;;;;;;;;5109003;28;20035;-28
2022/01/02 05:17:23;;;;;;;14.60;7.22;;;;;;;;;;5109123;28;20042;-28
2022/01/02 05:19:49;;;;;;;14.55;6.07;;;;;;;;;;5107240;28;20100;-28
2022/01/02 05:22:15;;;;;;;12.07;6.05;;;;;;;;;;5102786;28;20384;-28
2022/01/02 05:24:41;;;;;;;15.38;6.57;;;;;;;;;;5097932;28;20037;-28
2022/01/02 05:27:07;;;;;;;13.35;6.13;;;;;;;;;;5105156;28;20439;-28
2022/01/02 05:29:33;;;;;;;10.95;5.80;;;;;;;;;;5096611;28;20035;-28
2022/01/02 05:31:59;;;;;;;13.88;6.28;;;;;;;;;;5106065;28;20085;-27
2022/01/02 05:34:25;;;;;;;13.60;6.00;;;;;;;;;;5101800;28;20169;-27
2022/01/02 05:36:51;;;;;;;15.40;6.13;;;;;;;;;;5107826;28;20075;-28
2022/01/02 05:39:18;;;;;;;7.97;5.20;;;;;;;;;;5092650;28;20385;-28
2022/01/02 05:41:44;;;;;;;14.00;5.28;;;;;;;;;;5099826;28;20171;-28
2022/01/02 05:44:10;;;;;;;11.27;5.22;;;;;;;;;;5093770;28;20407;-28
2022/01/02 05:46:36;;;;;;;12.35;5.40;;;;;;;;;;5093076;28;20535;-29
2022/01/02 05:49:03;;;;;;;12.90;5.00;;;;;;;;;;5103435;28;20039;-29
2022/01/02 05:51:28;;;;;;;13.60;5.75;;;;;;;;;;5095283;28;20036;-29
2022/01/02 05:53:54;;;;;;;10.57;5.00;;;;;;;;;;5088062;28;20119;-28
2022/01/02 05:56:21;;;;;;;13.50;5.15;;;;;;;;;;5108420;28;20054;-28
2022/01/02 05:58:46;;;;;;;11.23;4.82;;;;;;;;;;5094647;28;20126;-28
2022/01/02 06:01:13;;;;;;;15.93;5.53;;;;;;;;;;5111015;28;20119;-29
2022/01/02 06:03:39;;;;;;;11.20;5.30;;;;;;;;;;5082793;28;20078;-28
2022/01/02 06:06:05;;;;;;;9.32;4.40;;;;;;;;;;5087715;28;20036;-28
2022/01/02 06:08:31;;;;;;;11.73;4.38;;;;;;;;;;5100768;28;20046;-28
2022/01/02 06:10:57;;;;;;;11.02;4.65;;;;;;;;;;5110937;28;20028;-27
2022/01/02 06:13:23;;;;;;;9.68;4.50;;;;;;;;;;5111542;28;20127;-29
2022/01/02 06:15:49;;;;;;;8.40;4.82;;;;;;;;;;5109557;28;20073;-29
2022/01/02 06:18:15;;;;;;;7.40;4.10;;;;;;;;;;5103116;28;20035;-29
2022/01/02 06:20:41;;;;;;;14.85;5.28;;;;;;;;;;5098438;28;20089;-28
2022/01/02 06:23:07;;;;;;;8.10;4.10;;;;;;;;;;5106351;28;20036;-27
2022/01/02 06:25:33;;;;;;;8.25;4.20;;;;;;;;;;5094827;28;20036;-28
2022/01/02 06:28:00;;;;;;;13.27;5.07;;;;;;;;;;5091744;28;20108;-29
2022/01/02 06:30:26;;;;;;;6.35;4.38;;;;;;;;;;5091362;28;20040;-29
2022/01/02 06:32:55;;;;;;;8.68;4.18;;;;;;;;;;5092641;28;20082;-29
2022/01/02 06:35:32;;;;;;;7.70;4.10;;;;;;;;;;5105098;28;20036;-29
2022/01/02 06:37:58;;;;;;;12.85;5.00;;;;;;;;;;5098301;28;20641;-29
2022/01/02 06:40:25;;;;;;;10.25;4.32;;;;;;;;;;5091609;28;20047;-29
2022/01/02 06:42:51;;;;;;;9.40;4.22;;;;;;;;;;5091054;28;20072;-29
2022/01/02 06:45:17;;;;;;;13.35;4.88;;;;;;;;;;5092698;28;20032;-29
2022/01/02 06:47:43;;;;;;;11.05;4.70;;;;;;;;;;5091182;28;20489;-28
2022/01/02 06:50:11;;;;;;;11.38;5.13;;;;;;;;;;5093206;28;20036;-29
2022/01/02 06:52:38;;;;;;;7.80;4.65;;;;;;;;;;5091690;28;20140;-28
2022/01/02 06:55:04;;;;;;;7.85;5.55;;;;;;;;;;5092655;28;20036;-29
2022/01/02 06:57:30;;;;;;;11.45;4.90;;;;;;;;;;5090515;28;20071;-28
2022/01/02 06:59:56;;;;;;;11.63;4.53;;;;;;;;;;5099599;28;20044;-30
2022/01/02 07:02:22;;;;;;;15.35;5.22;;;;;;;;;;5090271;28;20078;-29
2022/01/02 07:04:48;;;;;;;10.20;4.30;;;;;;;;;;5095965;28;20078;-29
2022/01/02 07:07:14;;;;;;;8.93;4.65;;;;;;;;;;5101237;28;20047;-29
2022/01/02 07:09:40;;;;;;;7.78;4.45;;;;;;;;;;5099470;28;20044;-28
2022/01/02 07:12:07;;;;;;;6.70;4.45;;;;;;;;;;5098795;28;20115;-31
2022/01/02 07:14:33;;;;;;;8.20;4.88;;;;;;;;;;5092034;28;20036;-26
2022/01/02 07:16:59;;;;;;;8.60;5.20;;;;;;;;;;5092196;28;20161;-27
2022/01/02 07:19:25;;;;;;;10.35;5.40;;;;;;;;;;5091706;28;20290;-26
2022/01/02 07:21:52;;;;;;;8.70;4.93;;;;;;;;;;5091684;28;20424;-27
2022/01/02 07:24:18;;;;;;;11.07;5.30;;;;;;;;;;5091260;28;20039;-25
2022/01/02 07:26:44;;;;;;;10.88;5.03;;;;;;;;;;5091204;28;20043;-26
2022/01/02 07:29:10;;;;;;;9.43;5.80;;;;;;;;;;5090747;28;20040;-26
2022/01/02 07:31:36;;;;;;;11.40;6.43;;;;;;;;;;5091562;28;20047;-27
2022/01/02 07:34:03;;;;;;;10.73;6.10;;;;;;;;;;5091820;28;20039;-26
2022/01/02 07:36:29;;;;;;;12.57;6.95;;;;;;;;;;5090216;28;20144;-27
2022/01/02 07:38:55;;;;;;;10.82;6.18;;;;;;;;;;5090961;28;20075;-27
2022/01/02 07:41:21;;;;;;;14.27;6.45;;;;;;;;;;5091688;28;20439;-26
2022/01/02 07:43:47;;;;;;;11.82;6.82;;;;;;;;;;5091106;28;20040;-26
2022/01/02 07:46:13;;;;;;;16.85;6.43;;;;;;;;;;5091665;28;20086;-26
2022/01/02 07:48:39;;;;;;;10.05;6.03;;;;;;;;;;5091596;28;20047;-27
2022/01/02 07:51:05;;;;;;;10.73;6.82;;;;;;;;;;5091401;28;20542;-27
2022/01/02 07:53:31;;;;;;;8.45;5.35;;;;;;;;;;5099830;28;20044;-28
2022/01/02 07:55:57;;;;;;;13.00;6.90;;;;;;;;;;5092578;28;20449;-29
2022/01/02 07:58:23;;;;;;;8.50;5.90;;;;;;;;;;5110070;28;20549;-26
2022/01/02 08:00:50;;;;;;;12.38;5.88;;;;;;;;;;5110037;28;20039;-27
2022/01/02 08:03:16;;;;;;;13.43;6.82;;;;;;;;;;5108920;28;20459;-27
2022/01/02 08:05:43;;;;;;;10.85;6.35;;;;;;;;;;5110652;28;20048;-27
2022/01/02 08:08:09;;;;;;;13.15;6.05;;;;;;;;;;5109299;28;20042;-27
2022/01/02 08:10:35;;;;;;;8.30;5.20;;;;;;;;;;5109666;28;20104;-27
2022/01/02 08:13:02;;;;;;;10.43;4.90;;;;;;;;;;5110927;28;20042;-26
2022/01/02 08:15:28;;;;;;;6.45;5.00;;;;;;;;;;5109569;28;20048;-26
2022/01/02 08:17:54;;;;;;;7.10;5.57;;;;;;;;;;5111317;28;20043;-27
2022/01/02 08:20:20;;;;;;;10.07;5.32;;;;;;;;;;5113020;28;20039;-27
2022/01/02 08:22:46;;;;;;;8.80;5.35;;;;;;;;;;5112365;28;20119;-27
2022/01/02 08:25:12;;;;;;;11.85;6.30;;;;;;;;;;5110810;28;20103;-27
2022/01/02 08:27:38;;;;;;;9.80;5.70;;;;;;;;;;5112445;28;20035;-27
2022/01/02 08:30:05;;;;;;;8.10;5.90;;;;;;;;;;5114178;28;20057;-27
2022/01/02 08:32:31;;;;;;;10.02;7.00;;;;;;;;;;5111324;28;20404;-27
2022/01/02 08:34:57;;;;;;;12.90;6.30;;;;;;;;;;5113918;28;20070;-27
2022/01/02 08:37:24;;;;;;;9.73;5.75;;;;;;;;;;5113603;28;20542;-26
2022/01/02 08:39:50;;;;;;;11.27;5.28;;;;;;;;;;5112262;28;20373;-27
2022/01/02 08:42:16;;;;;;;11.13;5.95;;;;;;;;;;5112241;28;20051;-27
2022/01/02 08:44:43;;;;;;;9.60;5.25;;;;;;;;;;5112279;28;20035;-27
2022/01/02 08:47:18;;;;;;;9.93;6.15;;;;;;;;;;5110218;28;20054;-27
2022/01/02 08:49:44;;;;;;;13.98;10.20;;;;;;;;;;5110737;28;20051;-26
2022/01/02 08:52:10;;;;;;;11.18;6.93;;;;;;;;;;5109495;28;20039;-29
2022/01/02 08:54:38;;;;;;;9.60;4.70;;;;;;;;;;5091449;28;20156;-30
2022/01/02 08:57:04;;;;;;;9.05;4.65;;;;;;;;;;5098703;28;20062;-28
2022/01/02 08:59:30;;;;;;;6.20;4.00;;;;;;;;;;5086093;28;20189;-29
2022/01/02 09:01:57;;;;;;;6.78;4.47;;;;;;;;;;5078624;28;20074;-29
2022/01/02 09:04:23;;;;;;;8.10;4.70;;;;;;;;;;5085502;28;20033;-29
2022/01/02 09:06:49;;;;;;;11.23;5.10;;;;;;;;;;5080789;28;20037;-29
2022/01/02 09:09:15;;;;;;;8.88;5.00;;;;;;;;;;5081036;28;20507;-28
2022/01/02 09:11:41;;;;;;;8.43;5.70;;;;;;;;;;5083723;28;20028;-29
2022/01/02 09:14:07;;;;;;;11.63;6.97;;;;;;;;;;5088146;28;20472;-29
2022/01/02 09:16:36;;;;;;;9.18;5.75;;;;;;;;;;5085190;28;20047;-29
2022/01/02 09:19:02;;;;;;;10.40;4.90;;;;;;;;;;5086130;28;20032;-29
2022/01/02 09:21:28;;;;;;;13.90;10.52;;;;;;;;;;5081511;28;20043;-29
2022/01/02 09:23:54;;;;;;;10.52;5.95;;;;;;;;;;5077751;28;20419;-29
2022/01/02 09:26:20;;;;;;;9.75;7.15;;;;;;;;;;5081249;28;20524;-29
2022/01/02 09:28:46;;;;;;;6.95;5.20;;;;;;;;;;5086028;28;20089;-30
2022/01/02 09:31:12;;;;;;;12.40;6.35;;;;;;;;;;5093264;28;20493;-29
2022/01/02 09:33:38;;;;;;;9.85;6.63;;;;;;;;;;5091267;28;20067;-30
2022/01/02 09:36:04;;;;;;;9.88;5.63;;;;;;;;;;5103078;28;20443;-30
2022/01/02 09:38:30;;;;;;;7.05;4.30;;;;;;;;;;5095397;28;20123;-29
2022/01/02 09:40:57;;;;;;;12.80;4.32;;;;;;;;;;5100534;28;20044;-29
2022/01/02 09:43:23;;;;;;;5.35;4.38;;;;;;;;;;5078621;28;20317;-29
2022/01/02 09:45:49;;;;;;;6.57;4.38;;;;;;;;;;5090751;28;20439;-29
2022/01/02 09:48:15;;;;;;;8.10;4.32;;;;;;;;;;5101442;28;20092;-29
2022/01/02 09:50:41;;;;;;;8.45;5.22;;;;;;;;;;5094657;28;20047;-29
2022/01/02 09:53:08;;;;;;;8.05;5.10;;;;;;;;;;5092696;28;21497;-29
2022/01/02 09:55:34;;;;;;;7.75;5.57;;;;;;;;;;5083203;28;20043;-30
2022/01/02 09:58:03;;;;;;;9.38;5.68;;;;;;;;;;5091335;28;20044;-29
2022/01/02 10:00:29;;;;;;;6.88;4.75;;;;;;;;;;5080191;28;20158;-29
2022/01/02 10:03:02;;;;;;;8.82;4.80;;;;;;;;;;5103899;28;20035;-30
2022/01/02 10:05:29;;;;;;;9.15;4.82;;;;;;;;;;5075489;28;20122;-30
2022/01/02 10:07:56;;;;;;;8.70;5.03;;;;;;;;;;5086282;28;20103;-29
2022/01/02 10:10:32;;;;;;;10.65;5.07;;;;;;;;;;5084460;28;20043;-29
2022/01/02 10:13:02;;;;;;;7.72;5.22;;;;;;;;;;5087826;28;20041;-29
2022/01/02 10:15:28;;;;;;;8.05;5.25;;;;;;;;;;5094864;28;20094;-30
2022/01/02 10:17:54;;;;;;;10.10;5.10;;;;;;;;;;5099528;28;20043;-29
2022/01/02 10:20:21;;;;;;;9.13;5.28;;;;;;;;;;5080739;28;20064;-30
2022/01/02 10:23:06;;;;;;;9.27;6.15;;;;;;;;;;5082577;28;20036;-30
2022/01/02 10:26:04;;;;;;;8.15;5.13;;;;;;;;;;5089968;28;20063;-30
2022/01/02 10:28:34;;;;;;;8.20;5.55;;;;;;;;;;5095147;28;20538;-29
2022/01/02 10:31:09;;;;;;;9.95;5.90;;;;;;;;;;5089079;28;20123;-33
2022/01/02 10:33:50;;;;;;;9.73;5.05;;;;;;;;;;5086869;28;20374;-29
2022/01/02 10:36:29;;;;;;;7.90;5.93;;;;;;;;;;5082256;28;20056;-29
2022/01/02 10:38:59;;;;;;;7.53;5.35;;;;;;;;;;5088332;28;20039;-29
2022/01/02 10:41:36;;;;;;;10.82;6.80;;;;;;;;;;5087359;28;20122;-30
2022/01/02 10:44:22;;;;;;;10.32;6.13;;;;;;;;;;5090132;28;20079;-29
2022/01/02 10:47:07;;;;;;;9.52;6.38;;;;;;;;;;5091713;28;20105;-27
2022/01/02 10:49:52;;;;;;;12.82;6.78;;;;;;;;;;5083667;28;20429;-31
2022/01/02 10:52:22;;;;;;;10.98;7.22;;;;;;;;;;5088078;28;20107;-30
2022/01/02 10:54:49;;;;;;;14.48;7.82;;;;;;;;;;5084094;28;20036;-30
2022/01/02 10:57:15;;;;;;;9.80;6.15;;;;;;;;;;5090910;28;20046;-30
2022/01/02 10:59:42;;;;;;;8.80;6.32;;;;;;;;;;5093431;28;20048;-30
2022/01/02 11:02:09;;;;;;;9.68;7.32;;;;;;;;;;5090235;28;20032;-30
2022/01/02 11:04:35;;;;;;;11.82;6.95;;;;;;;;;;5093689;28;20039;-30
2022/01/02 11:07:03;;;;;;;9.38;6.60;;;;;;;;;;5092147;28;20044;-30
2022/01/02 11:09:29;;;;;;;9.38;6.40;;;;;;;;;;5093667;28;20400;-30
2022/01/02 11:11:55;;;;;;;12.15;7.05;;;;;;;;;;5096045;28;20032;-30
2022/01/02 11:14:21;;;;;;;11.63;7.50;;;;;;;;;;5103101;28;20092;-30
2022/01/02 11:16:47;;;;;;;12.35;7.90;;;;;;;;;;5093372;28;20430;-30
2022/01/02 11:19:13;;;;;;;10.82;8.10;;;;;;;;;;5086572;28;20047;-30
2022/01/02 11:21:41;;;;;;;10.35;7.60;;;;;;;;;;5088064;28;20035;-30
2022/01/02 11:24:10;;;;;;;10.68;6.18;;;;;;;;;;5098648;28;20507;-30
2022/01/02 11:26:43;;;;;;;12.00;7.53;;;;;;;;;;5102591;28;20488;-31
2022/01/02 11:29:10;;;;;;;11.27;7.55;;;;;;;;;;5101304;28;20036;-31
2022/01/02 11:31:40;;;;;;;10.73;7.00;;;;;;;;;;5091258;28;20392;-30
2022/01/02 11:34:21;;;;;;;9.95;7.03;;;;;;;;;;5096130;28;20047;-29
2022/01/02 11:36:47;;;;;;;8.68;7.00;;;;;;;;;;5097415;28;20035;-29
2022/01/02 11:39:14;;;;;;;14.60;8.18;;;;;;;;;;5101487;28;20036;-30
2022/01/02 11:41:50;;;;;;;18.52;9.50;;;;;;;;;;5110462;28;20182;-30
2022/01/02 11:44:16;;;;;;;18.55;10.77;;;;;;;;;;5108612;28;20050;-30
2022/01/02 11:46:56;;;;;;;19.20;10.30;;;;;;;;;;5101546;28;20044;-30
2022/01/02 11:49:26;;;;;;;16.98;9.60;;;;;;;;;;5096718;28;20059;-31
2022/01/02 11:51:55;;;;;;;13.52;8.38;;;;;;;;;;5085093;28;20047;-30
2022/01/02 11:54:43;;;;;;;7.20;5.18;;;;;;;;;;5086569;28;20032;-30
2022/01/02 11:57:15;;;;;;;12.50;7.22;;;;;;;;;;5087666;28;20404;-31
2022/01/02 11:59:42;;;;;;;11.60;7.30;;;;;;;;;;5092458;28;20032;-30
2022/01/02 12:02:08;;;;;;;14.95;7.00;;;;;;;;;;5089996;28;20035;-30
2022/01/02 12:04:57;;;;;;;21.13;11.63;;;;;;;;;;5091769;28;20036;-32
2022/01/02 12:07:56;;;;;;;10.02;5.35;;;;;;;;;;5088328;28;20046;-30
2022/01/02 12:10:37;;;;;;;10.55;5.50;;;;;;;;;;5081350;28;20056;-31
2022/01/02 12:13:09;;;;;;;9.10;6.15;;;;;;;;;;5086065;28;20090;-30
2022/01/02 12:15:38;;;;;;;12.20;7.13;;;;;;;;;;5090463;28;20044;-30
2022/01/02 12:18:07;;;;;;;10.45;6.50;;;;;;;;;;5091938;28;20305;-30
2022/01/02 12:23:33;;;;;;;16.25;7.53;;;;;;;;;;5090895;28;20043;-30
2022/01/02 12:26:00;;;;;;;13.32;6.38;;;;;;;;;;5085285;28;20028;-30
2022/01/02 12:28:26;;;;;;;8.10;5.68;;;;;;;;;;5087424;28;20040;-30
2022/01/02 12:30:52;;;;;;;10.48;6.30;;;;;;;;;;5098127;28;20039;-31
2022/01/02 12:33:30;;;;;;;11.57;5.97;;;;;;;;;;5103861;28;20031;-32
2022/01/02 12:35:56;;;;;;;11.55;7.10;;;;;;;;;;5101600;28;20109;-31
2022/01/02 12:38:22;;;;;;;10.85;6.32;;;;;;;;;;5106803;28;20040;-30
2022/01/02 12:40:53;;;;;;;10.73;4.93;;;;;;;;;;5101355;28;20040;-30
2022/01/02 12:43:25;;;;;;;10.98;5.22;;;;;;;;;;5080886;28;20128;-31
2022/01/02 12:45:55;;;;;;;11.75;5.45;;;;;;;;;;5082286;28;20032;-30
2022/01/02 12:48:33;;;;;;;12.57;5.93;;;;;;;;;;5093618;28;20643;-30
2022/01/02 12:51:12;;;;;;;12.02;5.68;;;;;;;;;;5086942;28;20036;-30
2022/01/02 12:53:38;;;;;;;8.35;4.68;;;;;;;;;;5104350;28;20451;-30
2022/01/02 12:56:04;;;;;;;8.20;4.82;;;;;;;;;;5090045;28;20043;-30
2022/01/02 12:58:34;;;;;;;12.32;5.22;;;;;;;;;;5090769;28;20086;-30
2022/01/02 13:01:06;;;;;;;11.90;4.03;;;;;;;;;;5088092;28;20047;-28
2022/01/02 13:03:32;;;;;;;7.28;2.60;;;;;;;;;;5093289;28;20063;-28
2022/01/02 13:06:00;;;;;;;7.05;2.50;;;;;;;;;;5094557;28;20384;-32
2022/01/02 13:08:26;;;;;;;8.68;3.00;;;;;;;;;;5088662;28;20079;-31
2022/01/02 13:10:53;;;;;;;9.43;2.90;;;;;;;;;;5088468;28;20047;-33
2022/01/02 13:13:32;;;;;;;3.92;2.45;;;;;;;;;;5089930;28;21263;-31
2022/01/02 13:16:10;;;;;;;7.35;2.25;;;;;;;;;;5085073;28;20216;-32
2022/01/02 13:18:39;;;;;;;6.70;2.85;;;;;;;;;;5092063;28;20442;-32
2022/01/02 13:21:06;;;;;;;9.75;2.90;;;;;;;;;;5089697;28;20118;-32
2022/01/02 13:23:32;;;;;;;6.60;2.55;;;;;;;;;;5090769;28;20117;-33
2022/01/02 13:25:59;;;;;;;6.85;2.63;;;;;;;;;;5086546;28;20083;-29
2022/01/02 13:28:27;;;;;;;6.90;2.40;;;;;;;;;;5081029;28;20097;-28
2022/01/02 13:30:55;;;;;;;7.05;2.30;;;;;;;;;;5087388;28;20479;-27
2022/01/02 13:33:23;;;;;;;8.70;2.75;;;;;;;;;;5087870;28;20028;-29
2022/01/02 13:35:58;;;;;;;8.73;2.67;;;;;;;;;;5086872;28;20040;-30
2022/01/02 13:38:24;;;;;;;9.48;2.60;;;;;;;;;;5095111;28;20040;-30
2022/01/02 13:41:09;;;;;;;9.35;2.97;;;;;;;;;;5088332;28;20493;-30
2022/01/02 13:43:35;;;;;;;8.68;2.75;;;;;;;;;;5101149;28;20499;-30
2022/01/02 13:46:04;;;;;;;10.73;2.95;;;;;;;;;;5099198;28;20036;-30
2022/01/02 13:48:30;;;;;;;10.18;3.10;;;;;;;;;;5092104;28;20086;-30
2022/01/02 13:54:40;;;;;;;9.50;2.95;;;;;;;;;;5078602;28;20110;-30
2022/01/02 13:57:10;;;;;;;11.95;3.50;;;;;;;;;;5087912;28;20048;-30
2022/01/02 13:59:38;;;;;;;10.25;3.03;;;;;;;;;;5087839;28;20050;-30
2022/01/02 14:02:07;;;;;;;10.57;3.47;;;;;;;;;;5092406;28;20540;-30
2022/01/02 14:04:51;;;;;;;10.45;3.13;;;;;;;;;;5097309;28;20048;-30
2022/01/02 14:07:18;;;;;;;9.27;2.92;;;;;;;;;;5093819;28;20118;-30
2022/01/02 14:09:51;;;;;;;6.00;2.75;;;;;;;;;;5106494;28;20080;-30
2022/01/02 14:12:36;;;;;;;10.43;2.97;;;;;;;;;;5088231;28;20032;-30
2022/01/02 14:15:16;;;;;;;8.05;3.10;;;;;;;;;;5077365;28;20032;-31
2022/01/02 14:17:53;;;;;;;7.15;3.00;;;;;;;;;;5090834;28;20305;-30
2022/01/02 14:20:20;;;;;;;13.73;3.92;;;;;;;;;;5098402;28;20027;-30
2022/01/02 14:22:47;;;;;;;11.68;3.63;;;;;;;;;;5084493;28;20040;-29
2022/01/02 14:25:17;;;;;;;9.60;3.15;;;;;;;;;;5103922;28;20092;-28
2022/01/02 14:27:57;;;;;;;14.30;4.10;;;;;;;;;;5092832;28;20040;-29
2022/01/02 14:30:24;;;;;;;11.93;3.58;;;;;;;;;;5096021;28;20381;-29
2022/01/02 14:32:52;;;;;;;15.60;4.05;;;;;;;;;;5089325;28;20061;-29
2022/01/02 14:35:18;;;;;;;10.63;3.50;;;;;;;;;;5094486;28;20043;-29
2022/01/02 14:37:49;;;;;;;11.32;3.25;;;;;;;;;;5094926;28;20169;-28
2022/01/02 14:40:28;;;;;;;7.57;2.63;;;;;;;;;;5105492;28;20087;-28
2022/01/02 14:43:20;;;;;;;7.47;3.25;;;;;;;;;;5086579;28;20591;-28
2022/01/02 14:45:50;;;;;;;9.15;3.40;;;;;;;;;;5100061;28;20039;-28
2022/01/02 14:48:22;;;;;;;10.95;3.08;;;;;;;;;;5097560;28;20044;-28
2022/01/02 14:51:50;;;;;;;8.75;3.20;;;;;;;;;;5097946;27;20040;-28
2022/01/02 14:54:49;;;;;;;4.65;2.45;;;;;;;;;;5091091;28;20085;-28
2022/01/02 14:57:15;;;;;;;14.10;3.40;;;;;;;;;;5091867;28;20036;-28
2022/01/02 14:59:43;;;;;;;9.07;2.40;;;;;;;;;;5089871;28;20117;-28